Time;durP1;ratioP1;P1;durP2;ratioP2;P2;SDS_P1;SDS_P2;PMS_P1;PMS_P2;Temp;Humidity;BMP_temperature;BMP_pressure;BME280_temperature;BME280_humidity;BME280_pressure;Samples;Min_cycle;Max_cycle;Signal;HPM_P1;HPM_P2
2022/07/02 00:02:21;;;;;;;;;;;;;;;;;;6190872;23;20213;-82
2022/07/02 00:04:52;;;;;;;;;;;;;;;;;;6190055;23;19913;-83
2022/07/02 00:07:17;;;;;;;;;;;;;;;;;;6188296;23;19996;-82
2022/07/02 00:09:43;;;;;;;;;;;;;;;;;;6160660;23;19944;-83
2022/07/02 00:12:10;;;;;;;;;;;;;;;;;;6158251;23;19924;-83
2022/07/02 00:14:35;;;;;;;;;;;;;;;;;;6185556;23;19912;-83
2022/07/02 00:17:01;;;;;;;;;;;;;;;;;;6186188;23;20408;-82
2022/07/02 00:19:28;;;;;;;;;;;;;;;;;;6159896;23;19948;-83
2022/07/02 00:21:54;;;;;;;;;;;;;;;;;;6185822;23;19967;-82
2022/07/02 00:24:22;;;;;;;;;;;;;;;;;;6160631;23;20313;-82
2022/07/02 00:26:57;;;;;;;;;;;;;;;;;;6160316;23;19947;-82
2022/07/02 00:29:29;;;;;;;;;;;;;;;;;;6160860;23;19938;-82
2022/07/02 00:31:55;;;;;;;;;;;;;;;;;;6185691;23;19912;-82
2022/07/02 00:34:22;;;;;;;;;;;;;;;;;;6159189;23;19944;-83
2022/07/02 00:36:49;;;;;;;;;;;;;;;;;;6186481;23;20304;-83
2022/07/02 00:39:14;;;;;;;;;;;;;;;;;;6186866;23;20243;-83
2022/07/02 00:41:40;;;;;;;;;;;;;;;;;;6162062;23;19987;-83
2022/07/02 00:44:06;;;;;;;;;;;;;;;;;;6188237;23;19951;-83
2022/07/02 00:46:34;;;;;;;;;;;;;;;;;;6186484;23;19912;-83
2022/07/02 00:49:01;;;;;;;;;;;;;;;;;;6186523;23;19912;-82
2022/07/02 00:51:26;;;;;;;;;;;;;;;;;;6186519;23;20380;-83
2022/07/02 00:53:53;;;;;;;;;;;;;;;;;;6161346;23;19912;-84
2022/07/02 00:56:18;;;;;;;;;;;;;;;;;;6187279;23;19968;-83
2022/07/02 00:58:44;;;;;;;;;;;;;;;;;;6185495;23;19912;-84
2022/07/02 01:01:09;;;;;;;;;;;;;;;;;;6185799;23;19916;-82
2022/07/02 01:03:35;;;;;;;;;;;;;;;;;;6161106;23;19912;-83
2022/07/02 01:06:00;;;;;;;;;;;;;;;;;;6186451;23;19919;-83
2022/07/02 01:11:12;;;;;;;;;;;;;;;;;;6186154;23;19971;-82
2022/07/02 01:13:40;;;;;;;;;;;;;;;;;;6187929;23;19995;-83
2022/07/02 01:16:05;;;;;;;;;;;;;;;;;;6186722;23;19955;-82
2022/07/02 01:18:31;;;;;;;;;;;;;;;;;;6186975;23;19912;-83
2022/07/02 01:20:56;;;;;;;;;;;;;;;;;;6187548;23;19912;-83
2022/07/02 01:23:24;;;;;;;;;;;;;;;;;;6187572;23;19943;-84
2022/07/02 01:25:50;;;;;;;;;;;;;;;;;;6160859;23;19919;-83
2022/07/02 01:28:16;;;;;;;;;;;;;;;;;;6187207;23;19975;-82
2022/07/02 01:30:41;;;;;;;;;;;;;;;;;;6162139;23;20320;-82
2022/07/02 01:33:07;;;;;;;;;;;;;;;;;;6187319;23;19919;-82
2022/07/02 01:35:33;;;;;;;;;;;;;;;;;;6187875;23;19912;-83
2022/07/02 01:37:58;;;;;;;;;;;;;;;;;;6187664;23;20235;-82
2022/07/02 01:40:24;;;;;;;;;;;;;;;;;;6186027;23;19931;-84
2022/07/02 01:42:49;;;;;;;;;;;;;;;;;;6186194;23;19991;-82
2022/07/02 01:45:15;;;;;;;;;;;;;;;;;;6186547;23;19983;-84
2022/07/02 01:47:40;;;;;;;;;;;;;;;;;;6186245;23;19940;-82
2022/07/02 01:50:06;;;;;;;;;;;;;;;;;;6159968;23;19913;-83
2022/07/02 01:52:32;;;;;;;;;;;;;;;;;;6185167;23;19919;-83
2022/07/02 01:54:57;;;;;;;;;;;;;;;;;;6160753;23;19920;-82
2022/07/02 01:57:22;;;;;;;;;;;;;;;;;;6186360;23;19913;-84
2022/07/02 01:59:48;;;;;;;;;;;;;;;;;;6185919;23;19966;-83
2022/07/02 02:02:16;;;;;;;;;;;;;;;;;;6186178;23;19939;-82
2022/07/02 02:04:41;;;;;;;;;;;;;;;;;;6186545;23;19987;-84
2022/07/02 02:07:07;;;;;;;;;;;;;;;;;;6160411;23;19994;-83
2022/07/02 02:09:32;;;;;;;;;;;;;;;;;;6159908;23;19959;-83
2022/07/02 02:11:59;;;;;;;;;;;;;;;;;;6159271;23;20020;-83
2022/07/02 02:14:25;;;;;;;;;;;;;;;;;;6186739;23;19924;-82
2022/07/02 02:16:50;;;;;;;;;;;;;;;;;;6187216;23;19909;-82
2022/07/02 02:19:15;;;;;;;;;;;;;;;;;;6185577;23;19997;-83
2022/07/02 02:21:41;;;;;;;;;;;;;;;;;;6186384;23;19918;-82
2022/07/02 02:24:07;;;;;;;;;;;;;;;;;;6162346;23;19919;-83
2022/07/02 02:26:32;;;;;;;;;;;;;;;;;;6189630;23;19916;-83
2022/07/02 02:28:58;;;;;;;;;;;;;;;;;;6189445;23;19943;-82
2022/07/02 02:31:24;;;;;;;;;;;;;;;;;;6189511;23;19923;-82
2022/07/02 02:33:50;;;;;;;;;;;;;;;;;;6189401;23;19921;-82
2022/07/02 02:36:16;;;;;;;;;;;;;;;;;;6190235;23;19935;-83
2022/07/02 02:38:41;;;;;;;;;;;;;;;;;;6189578;23;19960;-82
2022/07/02 02:41:07;;;;;;;;;;;;;;;;;;6189318;23;19952;-83
2022/07/02 02:43:36;;;;;;;;;;;;;;;;;;6189893;23;20232;-83
2022/07/02 02:46:02;;;;;;;;;;;;;;;;;;6188902;23;19912;-83
2022/07/02 02:48:28;;;;;;;;;;;;;;;;;;6162786;23;19919;-82
2022/07/02 02:50:53;;;;;;;;;;;;;;;;;;6162447;23;19939;-82
2022/07/02 02:53:19;;;;;;;;;;;;;;;;;;6188680;23;19915;-82
2022/07/02 02:55:44;;;;;;;;;;;;;;;;;;6189490;23;19935;-83
2022/07/02 02:58:09;;;;;;;;;;;;;;;;;;6163378;23;19916;-84
2022/07/02 03:00:35;;;;;;;;;;;;;;;;;;6188714;23;19913;-86
2022/07/02 03:03:00;;;;;;;;;;;;;;;;;;6189506;23;20301;-82
2022/07/02 03:05:26;;;;;;;;;;;;;;;;;;6190041;23;19909;-82
2022/07/02 03:07:53;;;;;;;;;;;;;;;;;;6189160;23;19912;-82
2022/07/02 03:10:18;;;;;;;;;;;;;;;;;;6163052;23;20299;-83
2022/07/02 03:12:44;;;;;;;;;;;;;;;;;;6188854;23;19921;-83
2022/07/02 03:15:09;;;;;;;;;;;;;;;;;;6189478;23;19948;-82
2022/07/02 03:17:34;;;;;;;;;;;;;;;;;;6188496;23;19913;-83
2022/07/02 03:20:00;;;;;;;;;;;;;;;;;;6187152;23;19919;-82
2022/07/02 03:22:25;;;;;;;;;;;;;;;;;;6189132;23;19977;-82
2022/07/02 03:24:51;;;;;;;;;;;;;;;;;;6189314;23;19912;-82
2022/07/02 03:27:16;;;;;;;;;;;;;;;;;;6189886;23;19913;-82
2022/07/02 03:29:42;;;;;;;;;;;;;;;;;;6189260;23;19919;-82
2022/07/02 03:32:07;;;;;;;;;;;;;;;;;;6188220;23;20237;-83
2022/07/02 03:34:33;;;;;;;;;;;;;;;;;;6189531;23;19912;-83
2022/07/02 03:48:05;;;;;;;;;;;;;;;;;;5072735;27;2350352;-82
2022/07/02 03:50:31;;;;;;;;;;;;;;;;;;5151880;27;19919;-82
2022/07/02 03:52:56;;;;;;;;;;;;;;;;;;5152984;27;20362;-81
2022/07/02 03:55:22;;;;;;;;;;;;;;;;;;5152798;27;19923;-81
2022/07/02 03:57:47;;;;;;;;;;;;;;;;;;5152868;27;19916;-82
2022/07/02 04:00:13;;;;;;;;;;;;;;;;;;5152827;27;19968;-81
2022/07/02 04:02:39;;;;;;;;;;;;;;;;;;5151553;27;19957;-82
2022/07/02 04:05:04;;;;;;;;;;;;;;;;;;5152739;27;19915;-81
2022/07/02 04:07:30;;;;;;;;;;;;;;;;;;5151597;27;19927;-82
2022/07/02 04:09:55;;;;;;;;;;;;;;;;;;5150597;27;19923;-81
2022/07/02 04:12:21;;;;;;;;;;;;;;;;;;5131851;27;19916;-82
2022/07/02 04:14:46;;;;;;;;;;;;;;;;;;5131863;27;19926;-82
2022/07/02 04:17:11;;;;;;;;;;;;;;;;;;5131570;27;19922;-82
2022/07/02 04:19:37;;;;;;;;;;;;;;;;;;5131680;27;19916;-82
2022/07/02 04:22:02;;;;;;;;;;;;;;;;;;5131862;27;20362;-82
2022/07/02 04:24:29;;;;;;;;;;;;;;;;;;5131901;27;20354;-82
2022/07/02 04:26:55;;;;;;;;;;;;;;;;;;5132080;27;19916;-83
2022/07/02 04:29:20;;;;;;;;;;;;;;;;;;5131495;27;20336;-83
2022/07/02 04:31:46;;;;;;;;;;;;;;;;;;5131378;27;19948;-83
2022/07/02 04:34:11;;;;;;;;;;;;;;;;;;5131340;27;19911;-82
2022/07/02 04:36:37;;;;;;;;;;;;;;;;;;5131363;27;20056;-83
2022/07/02 04:39:03;;;;;;;;;;;;;;;;;;5142445;27;20039;-82
2022/07/02 04:41:28;;;;;;;;;;;;;;;;;;5152187;27;19958;-82
2022/07/02 04:43:54;;;;;;;;;;;;;;;;;;5152133;27;19920;-83
2022/07/02 04:46:19;;;;;;;;;;;;;;;;;;5151510;27;19925;-83
2022/07/02 04:48:45;;;;;;;;;;;;;;;;;;5140267;27;19984;-83
2022/07/02 04:51:10;;;;;;;;;;;;;;;;;;5137898;27;19916;-83
2022/07/02 04:53:36;;;;;;;;;;;;;;;;;;5137890;27;20010;-83
2022/07/02 04:56:01;;;;;;;;;;;;;;;;;;5137660;27;19915;-83
2022/07/02 04:58:26;;;;;;;;;;;;;;;;;;5137728;27;19916;-83
2022/07/02 05:00:52;;;;;;;;;;;;;;;;;;5136435;27;19911;-84
2022/07/02 05:03:17;;;;;;;;;;;;;;;;;;5137734;27;19922;-83
2022/07/02 05:05:43;;;;;;;;;;;;;;;;;;5137620;27;20281;-83
2022/07/02 05:08:08;;;;;;;;;;;;;;;;;;5138453;27;20282;-84
2022/07/02 05:10:35;;;;;;;;;;;;;;;;;;5140450;27;19960;-83
2022/07/02 05:13:00;;;;;;;;;;;;;;;;;;5139465;27;19911;-83
2022/07/02 05:15:26;;;;;;;;;;;;;;;;;;5138778;27;19919;-83
2022/07/02 05:17:51;;;;;;;;;;;;;;;;;;5140792;27;19922;-83
2022/07/02 05:20:17;;;;;;;;;;;;;;;;;;5137904;27;19938;-85
2022/07/02 05:22:42;;;;;;;;;;;;;;;;;;5137075;27;20001;-83
2022/07/02 05:25:14;;;;;;;;;;;;;;;;;;5125750;27;20330;-84
2022/07/02 05:27:39;;;;;;;;;;;;;;;;;;5122327;28;20183;-86
2022/07/02 05:30:05;;;;;;;;;;;;;;;;;;5119496;27;20377;-83
2022/07/02 05:32:32;;;;;;;;;;;;;;;;;;5120853;28;19915;-83
2022/07/02 05:34:57;;;;;;;;;;;;;;;;;;5120994;27;20358;-85
2022/07/02 05:37:22;;;;;;;;;;;;;;;;;;5123636;28;19916;-83
2022/07/02 05:39:48;;;;;;;;;;;;;;;;;;5121384;28;19916;-84
2022/07/02 05:42:13;;;;;;;;;;;;;;;;;;5118775;28;19916;-84
2022/07/02 05:44:39;;;;;;;;;;;;;;;;;;5117497;27;20294;-83
2022/07/02 05:47:04;;;;;;;;;;;;;;;;;;5121394;28;19924;-83
2022/07/02 05:49:30;;;;;;;;;;;;;;;;;;5118943;28;19923;-84
2022/07/02 05:51:55;;;;;;;;;;;;;;;;;;5120119;28;19916;-84
2022/07/02 05:54:21;;;;;;;;;;;;;;;;;;5129712;27;20384;-83
2022/07/02 05:56:46;;;;;;;;;;;;;;;;;;5137298;27;19923;-84
2022/07/02 05:59:12;;;;;;;;;;;;;;;;;;5141398;27;19920;-83
2022/07/02 06:01:47;;;;;;;;;;;;;;;;;;5133906;27;19924;-84
2022/07/02 06:04:13;;;;;;;;;;;;;;;;;;5130616;27;19915;-85
2022/07/02 06:09:24;;;;;;;;;;;;;;;;;;5128854;27;19926;-85
2022/07/02 06:11:50;;;;;;;;;;;;;;;;;;5124014;27;19979;-86
2022/07/02 06:14:20;;;;;;;;;;;;;;;;;;5123581;27;19943;-87
2022/07/02 06:16:45;;;;;;;;;;;;;;;;;;5125251;27;20563;-86
2022/07/02 06:19:11;;;;;;;;;;;;;;;;;;5131254;27;19904;-88
2022/07/02 06:21:36;;;;;;;;;;;;;;;;;;5123346;27;20398;-86
2022/07/02 06:24:02;;;;;;;;;;;;;;;;;;5114306;28;19923;-85
2022/07/02 06:26:27;;;;;;;;;;;;;;;;;;5136577;27;19919;-87
2022/07/02 06:28:53;;;;;;;;;;;;;;;;;;5124204;27;20302;-89
2022/07/02 06:31:21;;;;;;;;;;;;;;;;;;5122381;27;20267;-86
2022/07/02 06:33:46;;;;;;;;;;;;;;;;;;5135978;27;20433;-86
2022/07/02 06:36:14;;;;;;;;;;;;;;;;;;5134704;27;19920;-87
2022/07/02 06:38:42;;;;;;;;;;;;;;;;;;5135996;27;19922;-86
2022/07/02 06:44:00;;;;;;;;;;;;;;;;;;5117893;27;20007;-86
2022/07/02 06:46:25;;;;;;;;;;;;;;;;;;5124573;27;19951;-85
2022/07/02 06:48:51;;;;;;;;;;;;;;;;;;5115919;28;20287;-88
2022/07/02 06:51:16;;;;;;;;;;;;;;;;;;5119074;28;19931;-87
2022/07/02 06:53:42;;;;;;;;;;;;;;;;;;5116855;28;19916;-86
2022/07/02 06:56:07;;;;;;;;;;;;;;;;;;5114194;28;19978;-85
2022/07/02 06:58:33;;;;;;;;;;;;;;;;;;5118187;28;19961;-85
2022/07/02 07:01:01;;;;;;;;;;;;;;;;;;5115140;28;19919;-87
2022/07/02 07:03:29;;;;;;;;;;;;;;;;;;5114697;28;19919;-87
2022/07/02 07:05:55;;;;;;;;;;;;;;;;;;5114912;28;19923;-86
2022/07/02 07:08:20;;;;;;;;;;;;;;;;;;5115263;28;20287;-87
2022/07/02 07:10:46;;;;;;;;;;;;;;;;;;5114545;28;20378;-86
2022/07/02 07:13:11;;;;;;;;;;;;;;;;;;5115835;28;19912;-88
2022/07/02 07:15:38;;;;;;;;;;;;;;;;;;5123612;27;19922;-87
2022/07/02 07:18:03;;;;;;;;;;;;;;;;;;5137028;27;19915;-87
2022/07/02 07:20:29;;;;;;;;;;;;;;;;;;5123443;27;19920;-89
2022/07/02 07:22:55;;;;;;;;;;;;;;;;;;5123293;27;19920;-87
2022/07/02 07:25:20;;;;;;;;;;;;;;;;;;5125128;27;19963;-88
2022/07/02 07:27:46;;;;;;;;;;;;;;;;;;5122090;27;20086;-87
2022/07/02 07:30:11;;;;;;;;;;;;;;;;;;5119977;27;19982;-88
2022/07/02 07:32:37;;;;;;;;;;;;;;;;;;5127720;27;19976;-89
2022/07/02 07:35:03;;;;;;;;;;;;;;;;;;5112991;28;19927;-86
2022/07/02 07:37:28;;;;;;;;;;;;;;;;;;5114986;28;19916;-87
2022/07/02 07:39:54;;;;;;;;;;;;;;;;;;5119510;28;20394;-85
2022/07/02 07:42:19;;;;;;;;;;;;;;;;;;5124809;28;20358;-85
2022/07/02 07:44:44;;;;;;;;;;;;;;;;;;5121261;28;19926;-85
2022/07/02 07:47:10;;;;;;;;;;;;;;;;;;5127297;28;20018;-85
2022/07/02 07:49:35;;;;;;;;;;;;;;;;;;5114904;28;19947;-86
2022/07/02 07:52:01;;;;;;;;;;;;;;;;;;5122555;28;19918;-85
2022/07/02 07:54:26;;;;;;;;;;;;;;;;;;5125140;28;19919;-85
2022/07/02 07:56:55;;;;;;;;;;;;;;;;;;5127413;27;19922;-87
2022/07/02 07:59:22;;;;;;;;;;;;;;;;;;5123908;28;19919;-87
2022/07/02 08:01:52;;;;;;;;;;;;;;;;;;5129835;28;19926;-85
2022/07/02 08:04:18;;;;;;;;;;;;;;;;;;5137393;28;20266;-87
2022/07/02 08:06:43;;;;;;;;;;;;;;;;;;5143302;27;20010;-87
2022/07/02 08:09:10;;;;;;;;;;;;;;;;;;5121125;28;19990;-86
2022/07/02 08:11:35;;;;;;;;;;;;;;;;;;5138427;27;20378;-87
2022/07/02 08:14:01;;;;;;;;;;;;;;;;;;5137325;27;19968;-85
2022/07/02 08:16:26;;;;;;;;;;;;;;;;;;5138541;27;20381;-86
2022/07/02 08:18:51;;;;;;;;;;;;;;;;;;5138280;27;19958;-86
2022/07/02 08:21:17;;;;;;;;;;;;;;;;;;5121546;27;20025;-86
2022/07/02 08:23:44;;;;;;;;;;;;;;;;;;5120034;28;20286;-88
2022/07/02 08:26:09;;;;;;;;;;;;;;;;;;5121110;28;19916;-86
2022/07/02 08:28:35;;;;;;;;;;;;;;;;;;5121956;27;19915;-86
2022/07/02 08:31:02;;;;;;;;;;;;;;;;;;5129697;27;19916;-84
2022/07/02 08:33:28;;;;;;;;;;;;;;;;;;5127271;27;19920;-85
2022/07/02 08:35:53;;;;;;;;;;;;;;;;;;5134812;27;19944;-86
2022/07/02 08:38:19;;;;;;;;;;;;;;;;;;5121549;27;20006;-85
2022/07/02 08:40:44;;;;;;;;;;;;;;;;;;5126594;27;20269;-85
2022/07/02 08:43:14;;;;;;;;;;;;;;;;;;5117818;28;20052;-84
2022/07/02 08:45:42;;;;;;;;;;;;;;;;;;5139735;27;20271;-83
2022/07/02 08:48:07;;;;;;;;;;;;;;;;;;5144485;27;20327;-87
2022/07/02 08:50:34;;;;;;;;;;;;;;;;;;5142038;27;20006;-86
2022/07/02 08:53:00;;;;;;;;;;;;;;;;;;5138782;27;19915;-85
2022/07/02 08:55:28;;;;;;;;;;;;;;;;;;5142390;27;20274;-84
2022/07/02 08:57:54;;;;;;;;;;;;;;;;;;5143461;27;20261;-85
2022/07/02 09:00:21;;;;;;;;;;;;;;;;;;5135652;27;20019;-87
2022/07/02 09:02:49;;;;;;;;;;;;;;;;;;5141575;27;20014;-86
2022/07/02 09:05:16;;;;;;;;;;;;;;;;;;5124017;27;19968;-85
2022/07/02 09:07:43;;;;;;;;;;;;;;;;;;5132713;27;20275;-87
2022/07/02 09:10:13;;;;;;;;;;;;;;;;;;5129005;27;19919;-87
2022/07/02 09:12:39;;;;;;;;;;;;;;;;;;5128672;27;19919;-87
2022/07/02 09:15:06;;;;;;;;;;;;;;;;;;5122192;28;19916;-87
2022/07/02 09:17:32;;;;;;;;;;;;;;;;;;5120628;28;19916;-87
2022/07/02 09:19:58;;;;;;;;;;;;;;;;;;5135039;27;19915;-85
2022/07/02 09:22:30;;;;;;;;;;;;;;;;;;5136240;27;20333;-86
2022/07/02 09:24:56;;;;;;;;;;;;;;;;;;5123229;27;19920;-86
2022/07/02 09:27:24;;;;;;;;;;;;;;;;;;5122468;27;20320;-86
2022/07/02 09:29:55;;;;;;;;;;;;;;;;;;5135079;27;19916;-86
2022/07/02 09:32:20;;;;;;;;;;;;;;;;;;5117315;28;19916;-87
2022/07/02 09:34:47;;;;;;;;;;;;;;;;;;5117251;28;20088;-88
2022/07/02 09:37:13;;;;;;;;;;;;;;;;;;5116008;28;19916;-87
2022/07/02 09:39:40;;;;;;;;;;;;;;;;;;5116505;28;19916;-88
2022/07/02 09:42:05;;;;;;;;;;;;;;;;;;5116329;28;20056;-89
2022/07/02 09:44:31;;;;;;;;;;;;;;;;;;5116584;28;20367;-87
2022/07/02 09:46:57;;;;;;;;;;;;;;;;;;5114812;28;20018;-87
2022/07/02 09:49:22;;;;;;;;;;;;;;;;;;5116149;28;20000;-87
2022/07/02 09:51:47;;;;;;;;;;;;;;;;;;5116311;27;19923;-88
2022/07/02 09:54:17;;;;;;;;;;;;;;;;;;5116283;28;19920;-88
2022/07/02 09:56:50;;;;;;;;;;;;;;;;;;5115166;28;19961;-88
2022/07/02 09:59:15;;;;;;;;;;;;;;;;;;5115905;28;19959;-88
2022/07/02 10:01:44;;;;;;;;;;;;;;;;;;5116029;28;20295;-87
2022/07/02 10:04:09;;;;;;;;;;;;;;;;;;5116004;28;19915;-87
2022/07/02 10:06:35;;;;;;;;;;;;;;;;;;5115948;28;19923;-88
2022/07/02 10:09:01;;;;;;;;;;;;;;;;;;5114526;28;19916;-87
2022/07/02 10:11:27;;;;;;;;;;;;;;;;;;5116067;28;19920;-87
2022/07/02 10:13:54;;;;;;;;;;;;;;;;;;5115829;28;19916;-87
2022/07/02 10:16:20;;;;;;;;;;;;;;;;;;5115628;28;19915;-87
2022/07/02 10:18:46;;;;;;;;;;;;;;;;;;5115712;28;20394;-87
2022/07/02 10:21:12;;;;;;;;;;;;;;;;;;5115571;28;19915;-87
2022/07/02 10:23:42;;;;;;;;;;;;;;;;;;5114302;28;20294;-87
2022/07/02 10:26:09;;;;;;;;;;;;;;;;;;5115813;28;19916;-86
2022/07/02 10:28:34;;;;;;;;;;;;;;;;;;5115669;28;20255;-87
2022/07/02 10:31:00;;;;;;;;;;;;;;;;;;5114011;28;19920;-88
2022/07/02 10:33:37;;;;;;;;;;;;;;;;;;5115588;28;20011;-86
2022/07/02 10:36:03;;;;;;;;;;;;;;;;;;5115262;28;20324;-86
2022/07/02 10:38:34;;;;;;;;;;;;;;;;;;5114780;28;19937;-87
2022/07/02 10:40:59;;;;;;;;;;;;;;;;;;5115166;28;19912;-89
2022/07/02 10:43:29;;;;;;;;;;;;;;;;;;5115684;28;19922;-87
2022/07/02 10:46:03;;;;;;;;;;;;;;;;;;5114724;28;19930;-87
2022/07/02 10:48:29;;;;;;;;;;;;;;;;;;5115380;28;19926;-87
2022/07/02 10:50:55;;;;;;;;;;;;;;;;;;5115126;28;20014;-89
2022/07/02 10:53:21;;;;;;;;;;;;;;;;;;5115111;28;19916;-87
2022/07/02 10:55:53;;;;;;;;;;;;;;;;;;5114994;28;19953;-87
2022/07/02 10:58:20;;;;;;;;;;;;;;;;;;5115167;28;19923;-87
2022/07/02 11:00:46;;;;;;;;;;;;;;;;;;5114962;28;20036;-87
2022/07/02 11:03:17;;;;;;;;;;;;;;;;;;5114969;27;19955;-86
2022/07/02 11:06:02;;;;;;;;;;;;;;;;;;5114925;28;19922;-88
2022/07/02 11:08:45;;;;;;;;;;;;;;;;;;5114980;28;20426;-89
2022/07/02 11:11:18;;;;;;;;;;;;;;;;;;5114843;28;19923;-86
2022/07/02 11:13:54;;;;;;;;;;;;;;;;;;5115024;28;20014;-87
2022/07/02 11:16:20;;;;;;;;;;;;;;;;;;5114784;28;19916;-87
2022/07/02 11:18:46;;;;;;;;;;;;;;;;;;5114755;28;19920;-87
2022/07/02 11:21:12;;;;;;;;;;;;;;;;;;5114588;28;19970;-88
2022/07/02 11:23:38;;;;;;;;;;;;;;;;;;5113475;28;19938;-88
2022/07/02 11:26:04;;;;;;;;;;;;;;;;;;5113363;28;20389;-89
2022/07/02 11:28:29;;;;;;;;;;;;;;;;;;5113431;28;19920;-88
2022/07/02 11:30:58;;;;;;;;;;;;;;;;;;5113316;28;19988;-88
2022/07/02 11:33:23;;;;;;;;;;;;;;;;;;5114673;28;19916;-88
2022/07/02 11:35:52;;;;;;;;;;;;;;;;;;5114501;28;19927;-87
2022/07/02 11:38:20;;;;;;;;;;;;;;;;;;5114621;28;20374;-87
2022/07/02 11:40:45;;;;;;;;;;;;;;;;;;5113602;28;19922;-87
2022/07/02 11:43:14;;;;;;;;;;;;;;;;;;5115502;28;20341;-87
2022/07/02 11:45:47;;;;;;;;;;;;;;;;;;5115608;28;19919;-87
2022/07/02 11:48:20;;;;;;;;;;;;;;;;;;5131885;28;19966;-88
2022/07/02 11:50:54;;;;;;;;;;;;;;;;;;5143439;27;19915;-86
2022/07/02 11:53:19;;;;;;;;;;;;;;;;;;5135220;27;19962;-87
2022/07/02 11:55:45;;;;;;;;;;;;;;;;;;5135289;27;20293;-87
2022/07/02 11:58:10;;;;;;;;;;;;;;;;;;5136339;27;20389;-87
2022/07/02 12:00:35;;;;;;;;;;;;;;;;;;5137777;27;20263;-87
2022/07/02 12:03:11;;;;;;;;;;;;;;;;;;5138984;27;19919;-87
2022/07/02 12:05:36;;;;;;;;;;;;;;;;;;5137692;27;19915;-87
2022/07/02 12:08:04;;;;;;;;;;;;;;;;;;5137618;27;19915;-87
2022/07/02 12:10:37;;;;;;;;;;;;;;;;;;5138833;27;20399;-86
2022/07/02 12:13:09;;;;;;;;;;;;;;;;;;5137453;27;19915;-87
2022/07/02 12:15:45;;;;;;;;;;;;;;;;;;5138867;27;19969;-88
2022/07/02 12:18:16;;;;;;;;;;;;;;;;;;5137281;27;19922;-86
2022/07/02 12:20:42;;;;;;;;;;;;;;;;;;5137832;27;19915;-88
2022/07/02 12:23:07;;;;;;;;;;;;;;;;;;5137196;27;20022;-86
2022/07/02 12:25:53;;;;;;;;;;;;;;;;;;5136531;27;19915;-86
2022/07/02 12:31:03;;;;;;;;;;;;;;;;;;5137926;27;19923;-86
2022/07/02 12:33:32;;;;;;;;;;;;;;;;;;5137678;27;19916;-86
2022/07/02 12:35:59;;;;;;;;;;;;;;;;;;5138233;27;20018;-87
2022/07/02 12:38:25;;;;;;;;;;;;;;;;;;5137084;27;20019;-87
2022/07/02 12:41:00;;;;;;;;;;;;;;;;;;5138220;27;19920;-85
2022/07/02 12:43:25;;;;;;;;;;;;;;;;;;5136996;27;20072;-85
2022/07/02 12:45:52;;;;;;;;;;;;;;;;;;5138487;27;20319;-84
2022/07/02 12:48:19;;;;;;;;;;;;;;;;;;5136915;27;19926;-85
2022/07/02 12:50:46;;;;;;;;;;;;;;;;;;5138219;27;20316;-84
2022/07/02 12:53:20;;;;;;;;;;;;;;;;;;5138134;27;20377;-85
2022/07/02 12:55:55;;;;;;;;;;;;;;;;;;5138143;27;20381;-85
2022/07/02 12:58:22;;;;;;;;;;;;;;;;;;5137947;27;19953;-85
2022/07/02 13:00:48;;;;;;;;;;;;;;;;;;5138339;27;20442;-86
2022/07/02 13:03:14;;;;;;;;;;;;;;;;;;5138006;27;19915;-85
2022/07/02 13:05:44;;;;;;;;;;;;;;;;;;5136527;27;19962;-86
2022/07/02 13:08:10;;;;;;;;;;;;;;;;;;5137570;27;19916;-86
2022/07/02 13:10:38;;;;;;;;;;;;;;;;;;5137847;27;20366;-85
2022/07/02 13:13:03;;;;;;;;;;;;;;;;;;5137746;27;19916;-87
2022/07/02 13:15:29;;;;;;;;;;;;;;;;;;5137932;27;19922;-86
2022/07/02 13:17:56;;;;;;;;;;;;;;;;;;5136298;27;19919;-85
2022/07/02 13:20:22;;;;;;;;;;;;;;;;;;5137639;27;19923;-84
2022/07/02 13:22:48;;;;;;;;;;;;;;;;;;5137524;27;19915;-86
2022/07/02 13:25:13;;;;;;;;;;;;;;;;;;5137469;27;19968;-85
2022/07/02 13:27:39;;;;;;;;;;;;;;;;;;5137519;27;20368;-85
2022/07/02 13:30:05;;;;;;;;;;;;;;;;;;5137293;27;19977;-84
2022/07/02 13:32:31;;;;;;;;;;;;;;;;;;5137213;27;19915;-86
2022/07/02 13:34:56;;;;;;;;;;;;;;;;;;5137500;27;19938;-85
2022/07/02 13:37:22;;;;;;;;;;;;;;;;;;5137266;27;19955;-85
2022/07/02 13:39:48;;;;;;;;;;;;;;;;;;5137068;27;19960;-85
2022/07/02 13:42:13;;;;;;;;;;;;;;;;;;5137149;27;20006;-85
2022/07/02 13:44:39;;;;;;;;;;;;;;;;;;5137116;27;20362;-84
2022/07/02 13:47:04;;;;;;;;;;;;;;;;;;5136795;27;20378;-85
2022/07/02 13:49:30;;;;;;;;;;;;;;;;;;5135635;27;20007;-86
2022/07/02 13:51:56;;;;;;;;;;;;;;;;;;5136937;27;19912;-85
2022/07/02 13:54:22;;;;;;;;;;;;;;;;;;5136700;27;20274;-86
2022/07/02 13:56:47;;;;;;;;;;;;;;;;;;5136691;27;19943;-85
2022/07/02 13:59:13;;;;;;;;;;;;;;;;;;5136736;27;20006;-85
2022/07/02 14:01:38;;;;;;;;;;;;;;;;;;5136837;27;19938;-85
2022/07/02 14:04:04;;;;;;;;;;;;;;;;;;5136645;27;19998;-85
2022/07/02 14:06:30;;;;;;;;;;;;;;;;;;5136636;27;19941;-86
2022/07/02 14:08:55;;;;;;;;;;;;;;;;;;5138561;27;19915;-87
2022/07/02 14:11:21;;;;;;;;;;;;;;;;;;5137198;27;19915;-86
2022/07/02 14:13:46;;;;;;;;;;;;;;;;;;5137723;27;19988;-86
2022/07/02 14:16:15;;;;;;;;;;;;;;;;;;5142268;27;20282;-87
2022/07/02 14:18:40;;;;;;;;;;;;;;;;;;5148881;27;19916;-88
2022/07/02 14:21:06;;;;;;;;;;;;;;;;;;5143333;27;20019;-86
2022/07/02 14:23:32;;;;;;;;;;;;;;;;;;5144553;27;19932;-88
2022/07/02 14:25:57;;;;;;;;;;;;;;;;;;5139680;27;19926;-89
2022/07/02 14:28:23;;;;;;;;;;;;;;;;;;5136433;27;20374;-89
2022/07/02 14:30:52;;;;;;;;;;;;;;;;;;5145000;27;19979;-87
2022/07/02 14:33:17;;;;;;;;;;;;;;;;;;5123012;22;19978;-87
2022/07/02 14:35:44;;;;;;;;;;;;;;;;;;5040820;28;19926;-88
2022/07/02 14:38:11;;;;;;;;;;;;;;;;;;5044974;28;20021;-88
2022/07/02 14:40:36;;;;;;;;;;;;;;;;;;5042376;28;19921;-88
2022/07/02 14:43:01;;;;;;;;;;;;;;;;;;5042770;28;20280;-88
2022/07/02 14:45:27;;;;;;;;;;;;;;;;;;5041212;28;20284;-87
2022/07/02 14:47:52;;;;;;;;;;;;;;;;;;5045000;28;19916;-87
2022/07/02 14:50:18;;;;;;;;;;;;;;;;;;5054563;28;19916;-88
2022/07/02 14:52:43;;;;;;;;;;;;;;;;;;5049897;28;19920;-88
2022/07/02 14:55:09;;;;;;;;;;;;;;;;;;5044896;28;19916;-88
2022/07/02 14:57:34;;;;;;;;;;;;;;;;;;5054277;28;20419;-86
2022/07/02 15:00:00;;;;;;;;;;;;;;;;;;5054461;28;20000;-88
2022/07/02 15:02:25;;;;;;;;;;;;;;;;;;5054666;28;19917;-88
2022/07/02 15:04:53;;;;;;;;;;;;;;;;;;5054479;28;19916;-88
2022/07/02 15:07:19;;;;;;;;;;;;;;;;;;5054645;28;20004;-88
2022/07/02 15:09:45;;;;;;;;;;;;;;;;;;5047840;28;20000;-87
2022/07/02 15:12:12;;;;;;;;;;;;;;;;;;5047509;28;19921;-88
2022/07/02 15:17:31;;;;;;;;;;;;;;;;;;5040996;28;19924;-88
2022/07/02 15:19:56;;;;;;;;;;;;;;;;;;5024679;28;20395;-87
2022/07/02 15:22:23;;;;;;;;;;;;;;;;;;5052851;28;19928;-86
2022/07/02 15:25:02;;;;;;;;;;;;;;;;;;5044452;28;19925;-86
2022/07/02 15:27:36;;;;;;;;;;;;;;;;;;5052765;28;19945;-87
2022/07/02 15:30:12;;;;;;;;;;;;;;;;;;5034269;28;19918;-87
2022/07/02 15:32:37;;;;;;;;;;;;;;;;;;5043411;28;19920;-87
2022/07/02 15:35:03;;;;;;;;;;;;;;;;;;5042566;28;19989;-88
2022/07/02 15:37:36;;;;;;;;;;;;;;;;;;5042242;28;19917;-88
2022/07/02 15:40:02;;;;;;;;;;;;;;;;;;5038873;28;19957;-87
2022/07/02 15:42:28;;;;;;;;;;;;;;;;;;5037499;28;19918;-88
2022/07/02 15:44:54;;;;;;;;;;;;;;;;;;5036196;28;20292;-88
2022/07/02 15:47:20;;;;;;;;;;;;;;;;;;5035028;28;20411;-88
2022/07/02 15:49:46;;;;;;;;;;;;;;;;;;5033559;28;19967;-89
2022/07/02 15:52:18;;;;;;;;;;;;;;;;;;5029367;28;19952;-88
2022/07/02 15:55:08;;;;;;;;;;;;;;;;;;5026915;28;19917;-88
2022/07/02 15:57:40;;;;;;;;;;;;;;;;;;5030113;28;19921;-86
2022/07/02 16:00:07;;;;;;;;;;;;;;;;;;5051947;28;19921;-90
2022/07/02 16:02:45;;;;;;;;;;;;;;;;;;5055095;28;19921;-88
2022/07/02 16:05:11;;;;;;;;;;;;;;;;;;5031393;28;20020;-87
2022/07/02 16:07:47;;;;;;;;;;;;;;;;;;5026040;28;19928;-86
2022/07/02 16:10:13;;;;;;;;;;;;;;;;;;5023635;28;20027;-87
2022/07/02 16:12:41;;;;;;;;;;;;;;;;;;5035473;28;19964;-86
2022/07/02 16:15:06;;;;;;;;;;;;;;;;;;5047502;28;19924;-85
2022/07/02 16:17:34;;;;;;;;;;;;;;;;;;5018502;28;20351;-86
2022/07/02 16:20:00;;;;;;;;;;;;;;;;;;5021836;28;19924;-86
2022/07/02 16:22:27;;;;;;;;;;;;;;;;;;5029313;28;19971;-86
2022/07/02 16:24:52;;;;;;;;;;;;;;;;;;5044537;28;19967;-88
2022/07/02 16:27:20;;;;;;;;;;;;;;;;;;5026708;28;19922;-88
2022/07/02 16:29:46;;;;;;;;;;;;;;;;;;5026587;28;19922;-88
2022/07/02 16:32:13;;;;;;;;;;;;;;;;;;5027246;28;19975;-86
2022/07/02 16:34:45;;;;;;;;;;;;;;;;;;5033503;28;19917;-86
2022/07/02 16:37:19;;;;;;;;;;;;;;;;;;5033958;28;19974;-87
2022/07/02 16:40:04;;;;;;;;;;;;;;;;;;5034165;28;20051;-87
2022/07/02 16:42:33;;;;;;;;;;;;;;;;;;5033606;28;19921;-86
2022/07/02 16:44:59;;;;;;;;;;;;;;;;;;5036123;28;19917;-87
2022/07/02 16:47:34;;;;;;;;;;;;;;;;;;5037026;28;19939;-85
2022/07/02 16:50:07;;;;;;;;;;;;;;;;;;5035733;28;20403;-87
2022/07/02 16:52:34;;;;;;;;;;;;;;;;;;5038250;28;19917;-87
2022/07/02 16:55:02;;;;;;;;;;;;;;;;;;5037263;28;19963;-86
2022/07/02 16:57:28;;;;;;;;;;;;;;;;;;5040558;28;19924;-87
2022/07/02 16:59:54;;;;;;;;;;;;;;;;;;5040401;28;19917;-93
2022/07/02 17:02:22;;;;;;;;;;;;;;;;;;5037188;28;19917;-95
2022/07/02 17:04:50;;;;;;;;;;;;;;;;;;5041938;28;19917;-88
2022/07/02 17:07:16;;;;;;;;;;;;;;;;;;5039229;28;19924;-88
2022/07/02 17:09:42;;;;;;;;;;;;;;;;;;5038292;28;19917;-87